メインページ
METAR-TAF:

METAR-TAF

空港 :

函館, 日本

函館空港

緯度: 41-46N, 経度: 140-49E, 海抜: 33m

現時点の気象観測

当レポートは21分前の23:35(UTC)に作成
北西の風 10kt
気温 -5°C
湿度 79%
気圧 1018 hPa
視程10km以上
高度2000ftの雲はほとんどない
高度4000ftの雲は散在している
弱いにわか雪

METAR: RJCH 182335Z 31010KT 9999 -SHSN FEW020 SCT040 M05/M08 Q1018 RMK 1CU020 3CU040 A3007

時間: 08:56 (23:56 UTC)

予報

当レポートは44分前の23:12(UTC)に作成
予報は19日の 00時(UTC)から 20日の 06時(UTC)まで有効
の風 6kt
視程10km以上
高度1500ftの雲はほとんどない
高度3000ftの千切れ雲あり
19日の 00時(UTC)から 19日の 02時(UTC)まで徐々に
西の風 14kt
19日の 00時(UTC)から 19日の 02時(UTC)まで一時的に
視程: 2000m
弱いにわか雪
19日の 07時(UTC)から 19日の 11時(UTC)まで一時的に
視程: 3000m
弱いにわか雪
20日の 03時(UTC)から 20日の 06時(UTC)まで一時的に
視程: 1500m
高度500ftの雲はほとんどない
高度800ftの千切れ雲あり
弱いにわか雪

TAF: RJCH 182312Z 1900/2006 36006KT 9999 FEW015 BKN030 BECMG 1900/1902 28014KT TEMPO 1900/1902 2000 -SHSN TEMPO 1907/1911 3000 -SHSN TEMPO 2003/2006 1500 -SHSN FEW005 BKN008

4,000以上の空港の気象観測と天気予報(METAR報とTAF報)

利用可能な観測所は地図上に黄色い丸と赤い丸で示す。

丸の上にカーソルを重ねると観測所名を参照できる。

次にクリックすると気象観測と天気予報を参照できる。

マップの切り替え:黒色「×」印の緑ボタンをクリックして拡大、「-」印の緑ボタンをクリックして縮小、緑色の三角印をクリックして隣りの地図に切り替え


METAR-TAF: